createdAt,value
2019-03-22T00:01:19.747Z,16.13
2019-03-22T00:03:24.292Z,16.80
2019-03-22T00:05:28.739Z,17.37
2019-03-22T00:07:33.185Z,17.73
2019-03-22T00:09:37.815Z,16.53
2019-03-22T00:11:42.247Z,16.93
2019-03-22T00:13:46.758Z,19.40
2019-03-22T00:15:51.185Z,17.77
2019-03-22T00:17:55.617Z,18.07
2019-03-22T00:20:00.060Z,17.37
2019-03-22T00:22:04.796Z,18.10
2019-03-22T00:24:09.262Z,18.17
2019-03-22T00:26:13.660Z,18.37
2019-03-22T00:28:18.098Z,17.53
2019-03-22T00:30:22.600Z,19.83
2019-03-22T00:32:27.140Z,18.70
2019-03-22T00:34:31.785Z,19.60
2019-03-22T00:36:36.179Z,19.20
2019-03-22T00:38:40.745Z,19.80
2019-03-22T00:40:48.161Z,18.57
2019-03-22T00:42:52.572Z,19.67
2019-03-22T00:44:56.988Z,21.20
2019-03-22T00:47:01.415Z,17.27
2019-03-22T00:49:06.002Z,19.70
2019-03-22T00:51:10.504Z,21.50
2019-03-22T00:53:15.173Z,22.00
2019-03-22T00:55:19.848Z,20.93
2019-03-22T00:57:28.716Z,20.90
2019-03-22T00:59:30.500Z,20.57
2019-03-22T01:01:35.296Z,20.70
2019-03-22T01:03:39.717Z,19.70
2019-03-22T01:05:44.387Z,21.30
2019-03-22T01:07:48.876Z,22.93
2019-03-22T01:09:53.422Z,21.90
2019-03-22T01:11:57.976Z,21.60
2019-03-22T01:14:02.515Z,22.53
2019-03-22T01:16:06.927Z,21.13
2019-03-22T01:18:11.451Z,22.67
2019-03-22T01:20:16.200Z,21.43
2019-03-22T01:22:20.591Z,21.97
2019-03-22T01:24:25.034Z,22.07
2019-03-22T01:26:29.552Z,21.87
2019-03-22T01:28:34.151Z,24.10
2019-03-22T01:30:38.567Z,21.63
2019-03-22T01:32:43.140Z,23.80
2019-03-22T01:34:49.499Z,19.80
2019-03-22T01:36:54.120Z,22.33
2019-03-22T01:38:58.607Z,21.77
2019-03-22T01:41:03.017Z,21.60
2019-03-22T01:43:07.483Z,21.70
2019-03-22T01:45:12.475Z,21.77
2019-03-22T01:47:16.936Z,22.90
2019-03-22T01:49:21.361Z,22.93
2019-03-22T01:51:25.851Z,25.10
2019-03-22T01:53:30.610Z,26.37
2019-03-22T01:55:35.074Z,21.37
2019-03-22T01:57:39.564Z,26.30
2019-03-22T01:59:44.095Z,24.20
2019-03-22T02:01:48.652Z,27.27
2019-03-22T02:03:53.173Z,23.70
2019-03-22T02:05:57.623Z,27.43
2019-03-22T02:08:02.083Z,14.87
2019-03-22T02:10:07.829Z,27.57
2019-03-22T02:12:12.471Z,25.10
2019-03-22T02:14:16.842Z,24.73
2019-03-22T02:16:21.253Z,25.13
2019-03-22T02:18:25.949Z,23.67
2019-03-22T02:20:30.445Z,21.53
2019-03-22T02:22:36.608Z,21.07
2019-03-22T02:24:41.309Z,24.33
2019-03-22T02:26:46.819Z,23.90
2019-03-22T02:28:51.324Z,24.20
2019-03-22T02:30:55.917Z,26.60
2019-03-22T02:33:00.513Z,24.30
2019-03-22T02:35:06.010Z,23.83
2019-03-22T02:37:10.503Z,18.13
2019-03-22T02:39:14.987Z,23.43
2019-03-22T02:41:19.582Z,23.87
2019-03-22T02:43:24.037Z,23.13
2019-03-22T02:45:28.614Z,25.40
2019-03-22T02:47:33.247Z,25.70
2019-03-22T02:49:37.932Z,26.00
2019-03-22T02:51:42.431Z,25.40
2019-03-22T02:53:46.864Z,24.93
2019-03-22T02:55:51.811Z,25.50
2019-03-22T02:57:56.453Z,23.07
2019-03-22T03:00:00.972Z,23.40
2019-03-22T03:02:06.229Z,22.47
2019-03-22T03:04:10.733Z,23.40
2019-03-22T03:06:15.200Z,23.70
2019-03-22T03:08:19.705Z,23.47
2019-03-22T03:10:24.205Z,23.00
2019-03-22T03:12:28.743Z,22.60
2019-03-22T03:14:33.216Z,24.33
2019-03-22T03:16:37.831Z,23.07
2019-03-22T03:18:42.207Z,24.70
2019-03-22T03:20:46.657Z,26.70
2019-03-22T03:22:51.208Z,24.70
2019-03-22T03:24:55.627Z,26.30
2019-03-22T03:27:00.252Z,23.40
2019-03-22T03:29:04.784Z,25.30
2019-03-22T03:31:09.246Z,25.33
2019-03-22T03:33:13.789Z,27.87
2019-03-22T03:35:18.754Z,23.77
2019-03-22T03:37:23.284Z,24.17
2019-03-22T03:39:27.803Z,26.20
2019-03-22T03:41:32.297Z,24.87
2019-03-22T03:43:36.778Z,24.83
2019-03-22T03:45:41.260Z,24.57
2019-03-22T03:47:45.763Z,25.47
2019-03-22T03:49:50.247Z,24.77
2019-03-22T03:51:54.697Z,23.87
2019-03-22T03:53:59.121Z,24.63
2019-03-22T03:56:03.584Z,25.10
2019-03-22T03:58:08.170Z,25.53
2019-03-22T04:00:13.161Z,21.77
2019-03-22T04:02:17.681Z,26.90
2019-03-22T04:04:22.212Z,23.80
2019-03-22T04:06:26.791Z,24.80
2019-03-22T04:08:31.330Z,23.97
2019-03-22T04:10:35.997Z,24.63
2019-03-22T04:12:40.582Z,28.23
2019-03-22T04:14:45.012Z,25.23
2019-03-22T04:16:49.468Z,24.67
2019-03-22T04:18:53.860Z,27.80
2019-03-22T04:20:58.279Z,24.37
2019-03-22T04:23:02.708Z,25.47
2019-03-22T04:25:07.490Z,25.97
2019-03-22T04:27:11.884Z,23.90
2019-03-22T04:29:16.301Z,25.80
2019-03-22T04:31:20.779Z,24.97
2019-03-22T04:33:25.597Z,24.33
2019-03-22T04:35:30.099Z,26.13
2019-03-22T04:37:34.537Z,27.67
2019-03-22T04:39:39.344Z,23.43
2019-03-22T04:41:43.891Z,23.57
2019-03-22T04:43:48.426Z,25.87
2019-03-22T04:45:54.700Z,26.47
2019-03-22T05:16:29.750Z,28.80
2019-03-22T05:18:45.778Z,27.80
2019-03-22T05:32:41.211Z,26.87
2019-03-22T05:37:53.767Z,23.63
2019-03-22T05:40:17.096Z,27.00
2019-03-22T05:42:40.454Z,25.13
2019-03-22T05:45:03.915Z,24.60
2019-03-22T05:47:27.307Z,28.30
2019-03-22T05:49:50.645Z,30.30
2019-03-22T05:52:14.066Z,27.23
2019-03-22T05:54:37.403Z,29.57
2019-03-22T05:57:01.013Z,25.13
2019-03-22T05:59:25.768Z,28.40
2019-03-22T06:02:08.420Z,28.70
2019-03-22T06:04:31.848Z,27.57
2019-03-22T06:06:55.167Z,27.70
2019-03-22T06:09:18.506Z,27.03
2019-03-22T06:11:41.953Z,29.13
2019-03-22T06:16:10.717Z,29.60
2019-03-22T06:18:34.024Z,29.50
2019-03-22T06:20:50.304Z,31.30
2019-03-22T06:23:05.683Z,30.60
2019-03-22T06:25:21.724Z,28.73
2019-03-22T06:27:37.468Z,29.77
2019-03-22T06:29:54.682Z,31.90
2019-03-22T06:32:10.816Z,29.70
2019-03-22T06:34:26.406Z,31.57
2019-03-22T06:36:41.857Z,29.30
2019-03-22T06:38:57.443Z,29.20
2019-03-22T06:41:13.564Z,30.20
2019-03-22T06:43:28.863Z,30.57
2019-03-22T06:45:44.419Z,31.43
2019-03-22T06:47:59.768Z,29.13
2019-03-22T06:50:15.231Z,29.27
2019-03-22T06:52:31.366Z,28.67
2019-03-22T06:54:47.339Z,29.73
2019-03-22T06:57:02.732Z,31.07
2019-03-22T06:59:18.211Z,29.40
2019-03-22T07:01:33.527Z,31.33
2019-03-22T07:03:49.056Z,29.77
2019-03-22T07:06:04.501Z,29.73
2019-03-22T07:08:20.787Z,27.97
2019-03-22T07:10:36.264Z,25.90
2019-03-22T07:12:52.430Z,26.30
2019-03-22T07:15:08.624Z,25.07
2019-03-22T07:17:24.908Z,27.30
2019-03-22T07:19:40.444Z,28.13
2019-03-22T07:21:56.615Z,27.83
2019-03-22T07:24:12.023Z,26.43
2019-03-22T07:26:30.146Z,27.57
2019-03-22T07:28:45.411Z,25.40
2019-03-22T07:31:00.300Z,26.07
2019-03-22T07:33:23.679Z,22.83
2019-03-22T07:35:47.103Z,26.70
2019-03-22T07:38:10.499Z,24.70
2019-03-22T07:40:33.897Z,22.23
2019-03-22T07:42:57.399Z,23.63
2019-03-22T07:45:20.753Z,24.87
2019-03-22T07:47:44.184Z,24.90
2019-03-22T07:50:07.630Z,24.90
2019-03-22T07:52:30.971Z,24.80
2019-03-22T07:57:35.187Z,25.40
2019-03-22T07:59:48.524Z,23.90
2019-03-22T08:02:12.104Z,25.03
2019-03-22T08:04:35.436Z,25.17
2019-03-22T08:07:01.239Z,26.77
2019-03-22T08:11:53.243Z,25.27
2019-03-22T08:14:16.749Z,23.77
2019-03-22T08:16:40.178Z,23.87
2019-03-22T08:18:56.460Z,22.20
2019-03-22T08:21:12.817Z,23.77
2019-03-22T08:23:28.299Z,23.37
2019-03-22T08:25:44.305Z,21.80
2019-03-22T08:27:59.927Z,20.97
2019-03-22T08:30:15.311Z,23.23
2019-03-22T08:32:31.268Z,24.77
2019-03-22T08:34:47.893Z,24.10
2019-03-22T08:37:04.241Z,22.80
2019-03-22T08:39:20.264Z,23.13
2019-03-22T08:41:35.646Z,25.27
2019-03-22T08:43:51.619Z,18.90
2019-03-22T08:46:07.955Z,21.57
2019-03-22T08:48:23.955Z,21.67
2019-03-22T08:50:40.166Z,20.33
2019-03-22T08:52:55.969Z,22.67
2019-03-22T08:55:12.023Z,23.50
2019-03-22T08:57:28.222Z,20.57
2019-03-22T08:59:43.661Z,21.30
2019-03-22T09:01:59.422Z,22.67
2019-03-22T09:04:14.779Z,21.33
2019-03-22T09:06:31.078Z,20.43
2019-03-22T09:08:48.036Z,21.50
2019-03-22T09:11:04.028Z,21.03
2019-03-22T09:13:19.523Z,22.90
2019-03-22T09:15:41.246Z,20.40
2019-03-22T09:17:57.623Z,21.50
2019-03-22T09:20:13.092Z,21.10
2019-03-22T09:22:29.099Z,21.20
2019-03-22T09:24:45.048Z,20.33
2019-03-22T09:27:01.319Z,20.33
2019-03-22T09:29:16.946Z,20.83
2019-03-22T09:31:33.318Z,22.90
2019-03-22T09:33:48.782Z,22.70
2019-03-22T09:36:03.300Z,20.17
2019-03-22T09:38:28.587Z,19.93
2019-03-22T09:40:51.903Z,21.83
2019-03-22T09:43:15.298Z,22.03
2019-03-22T09:45:38.825Z,20.20
2019-03-22T09:48:22.868Z,20.90
2019-03-22T09:50:46.291Z,22.40
2019-03-22T09:53:11.200Z,21.10
2019-03-22T09:55:34.613Z,21.73
2019-03-22T09:57:57.957Z,20.57
2019-03-22T10:00:40.192Z,21.93
2019-03-22T10:03:03.737Z,21.43
2019-03-22T10:05:27.100Z,20.57
2019-03-22T10:07:50.531Z,19.97
2019-03-22T10:12:44.793Z,22.17
2019-03-22T10:15:08.264Z,21.47
2019-03-22T10:17:31.701Z,22.10
2019-03-22T10:19:55.074Z,24.43
2019-03-22T10:22:18.443Z,24.00
2019-03-22T10:24:34.494Z,22.23
2019-03-22T10:26:50.101Z,23.57
2019-03-22T10:29:07.142Z,26.63
2019-03-22T10:31:36.115Z,25.27
2019-03-22T10:33:41.308Z,24.97
2019-03-22T10:35:56.807Z,23.00
2019-03-22T10:38:16.446Z,17.37
2019-03-22T10:40:30.763Z,26.67
2019-03-22T10:42:46.143Z,23.67
2019-03-22T10:45:02.146Z,23.87
2019-03-22T10:47:18.159Z,25.17
2019-03-22T10:49:33.827Z,26.83
2019-03-22T10:51:56.974Z,27.27
2019-03-22T10:54:07.546Z,23.00
2019-03-22T10:56:24.933Z,27.00
2019-03-22T10:58:40.534Z,27.07
2019-03-22T11:00:56.693Z,26.10
2019-03-22T11:03:12.101Z,26.63
2019-03-22T11:05:27.970Z,25.37
2019-03-22T11:07:44.206Z,26.00
2019-03-22T11:09:59.733Z,27.67
2019-03-22T11:12:16.017Z,28.40
2019-03-22T11:14:31.533Z,26.27
2019-03-22T11:16:47.721Z,28.63
2019-03-22T11:19:03.794Z,25.80
2019-03-22T11:21:19.938Z,26.40
2019-03-22T11:23:36.200Z,27.43
2019-03-22T11:25:51.962Z,28.40
2019-03-22T11:28:07.506Z,26.70
2019-03-22T11:30:23.061Z,26.57
2019-03-22T11:32:38.435Z,28.27
2019-03-22T11:34:54.647Z,27.07
2019-03-22T11:37:10.415Z,27.40
2019-03-22T11:39:25.929Z,27.00
2019-03-22T11:41:41.847Z,27.23
2019-03-22T11:43:57.548Z,24.80
2019-03-22T11:46:13.727Z,26.53
2019-03-22T11:48:29.211Z,25.73
2019-03-22T11:50:45.475Z,26.27
2019-03-22T11:53:01.760Z,26.00
2019-03-22T11:55:17.257Z,27.27
2019-03-22T11:57:33.439Z,26.37
2019-03-22T11:59:48.835Z,27.83
2019-03-22T12:02:04.415Z,26.67
2019-03-22T12:04:20.412Z,26.87
2019-03-22T12:06:36.500Z,24.27
2019-03-22T12:08:52.606Z,26.83
2019-03-22T12:11:08.835Z,27.43
2019-03-22T12:13:25.067Z,25.37
2019-03-22T12:15:41.025Z,30.30
2019-03-22T12:17:56.548Z,27.60
2019-03-22T12:20:11.955Z,28.00
2019-03-22T12:22:27.275Z,29.60
2019-03-22T12:24:42.873Z,23.50
2019-03-22T12:26:58.503Z,27.63
2019-03-22T12:29:13.931Z,27.30
2019-03-22T12:31:29.312Z,26.03
2019-03-22T12:33:44.725Z,28.80
2019-03-22T12:36:01.091Z,29.80
2019-03-22T12:38:16.823Z,32.57
2019-03-22T12:40:33.065Z,29.03
2019-03-22T12:42:48.555Z,30.10
2019-03-22T12:45:04.265Z,26.20
2019-03-22T12:47:20.379Z,29.83
2019-03-22T12:49:35.817Z,29.27
2019-03-22T12:51:51.539Z,30.93
2019-03-22T12:54:06.920Z,30.20
2019-03-22T12:56:23.192Z,30.63
2019-03-22T12:58:38.593Z,29.30
2019-03-22T13:00:54.210Z,32.53
2019-03-22T13:03:10.536Z,30.03
2019-03-22T13:05:25.938Z,31.77
2019-03-22T13:07:41.925Z,31.00
2019-03-22T13:09:57.649Z,30.40
2019-03-22T13:12:13.044Z,31.13
2019-03-22T13:14:27.604Z,30.87
2019-03-22T13:16:51.135Z,29.50
2019-03-22T13:19:14.473Z,31.80
2019-03-22T13:24:10.825Z,33.73
2019-03-22T13:26:26.778Z,33.00
2019-03-22T13:28:42.658Z,32.37
2019-03-22T13:30:58.129Z,33.30
2019-03-22T13:33:13.677Z,30.53
2019-03-22T13:35:29.074Z,28.57
2019-03-22T13:37:45.290Z,33.43
2019-03-22T13:40:01.073Z,33.70
2019-03-22T13:42:17.021Z,30.43
2019-03-22T13:44:32.544Z,34.73
2019-03-22T13:46:46.988Z,30.77
2019-03-22T13:49:10.312Z,32.03
2019-03-22T13:54:02.756Z,32.30
2019-03-22T13:56:26.069Z,34.70
2019-03-22T13:58:49.453Z,31.43
2019-03-22T14:01:12.780Z,30.23
2019-03-22T14:03:36.156Z,33.87
2019-03-22T14:05:59.694Z,33.93
2019-03-22T14:08:23.100Z,32.53
2019-03-22T14:10:46.524Z,33.60
2019-03-22T14:13:10.161Z,32.40
2019-03-22T14:15:33.592Z,33.23
2019-03-22T14:17:57.142Z,33.43
2019-03-22T14:20:20.572Z,35.00
2019-03-22T14:22:25.037Z,33.20
2019-03-22T14:24:49.211Z,34.53
2019-03-22T14:27:06.301Z,33.50
2019-03-22T14:29:21.781Z,34.13
2019-03-22T14:31:37.445Z,34.20
2019-03-22T14:33:52.915Z,33.97
2019-03-22T14:36:08.390Z,33.87
2019-03-22T14:38:23.801Z,31.40
2019-03-22T14:40:39.257Z,33.63
2019-03-22T14:42:54.608Z,33.47
2019-03-22T14:45:10.540Z,33.20
2019-03-22T14:47:26.760Z,31.03
2019-03-22T14:49:43.063Z,32.60
2019-03-22T14:51:59.263Z,31.67
2019-03-22T14:54:15.595Z,34.47
2019-03-22T14:56:29.997Z,31.80
2019-03-22T14:58:53.321Z,33.87
2019-03-22T15:01:16.640Z,32.07
2019-03-22T15:03:39.955Z,31.83
2019-03-22T15:06:03.339Z,34.30
2019-03-22T15:08:26.690Z,32.47
2019-03-22T15:10:50.075Z,34.30
2019-03-22T15:16:16.791Z,32.23
2019-03-22T15:18:59.220Z,33.67
2019-03-22T15:21:41.809Z,31.63
2019-03-22T15:24:24.192Z,34.40
2019-03-22T15:27:06.585Z,31.77
2019-03-22T15:29:44.786Z,29.93
2019-03-22T15:32:19.288Z,29.90
2019-03-22T15:34:54.425Z,34.63
2019-03-22T15:40:10.832Z,33.50
2019-03-22T15:42:27.246Z,32.57
2019-03-22T15:44:42.828Z,33.43
2019-03-22T15:46:58.454Z,31.03
2019-03-22T15:49:13.902Z,32.53
2019-03-22T15:51:29.435Z,34.73
2019-03-22T15:53:45.221Z,33.10
2019-03-22T15:56:00.755Z,34.00
2019-03-22T15:58:16.700Z,33.27
2019-03-22T16:00:32.286Z,33.17
2019-03-22T16:02:48.487Z,33.63
2019-03-22T16:05:02.967Z,32.40
2019-03-22T16:07:26.363Z,32.00
2019-03-22T16:09:49.760Z,34.20
2019-03-22T16:12:13.195Z,35.03
2019-03-22T16:14:36.556Z,32.20
2019-03-22T16:16:59.911Z,35.27
2019-03-22T16:19:42.361Z,35.37
2019-03-22T16:22:05.754Z,32.47
2019-03-22T16:24:29.097Z,34.07
2019-03-22T16:29:28.764Z,36.00
2019-03-22T16:31:44.315Z,34.97
2019-03-22T16:33:59.763Z,35.17
2019-03-22T16:36:15.484Z,34.40
2019-03-22T16:38:31.328Z,38.00
2019-03-22T16:40:47.643Z,35.83
2019-03-22T16:43:03.001Z,38.03
2019-03-22T16:45:18.350Z,36.17
2019-03-22T16:47:33.879Z,36.53
2019-03-22T16:49:49.359Z,35.13
2019-03-22T16:52:05.663Z,35.37
2019-03-22T16:54:21.040Z,35.40
2019-03-22T16:56:37.304Z,33.97
2019-03-22T16:58:53.541Z,35.30
2019-03-22T17:01:09.735Z,35.13
2019-03-22T17:03:25.727Z,35.00
2019-03-22T17:05:41.215Z,35.90
2019-03-22T17:07:56.759Z,35.47
2019-03-22T17:10:12.217Z,36.40
2019-03-22T17:12:27.742Z,35.27
2019-03-22T17:14:43.585Z,36.27
2019-03-22T17:16:58.967Z,34.60
2019-03-22T17:19:14.799Z,33.37
2019-03-22T17:21:31.099Z,37.10
2019-03-22T17:23:46.899Z,35.20
2019-03-22T17:26:03.448Z,34.67
2019-03-22T17:28:22.431Z,33.67
2019-03-22T17:30:38.747Z,34.63
2019-03-22T17:32:53.199Z,32.17
2019-03-22T17:35:16.587Z,35.67
2019-03-22T17:37:40.004Z,34.00
2019-03-22T17:40:03.515Z,34.70
2019-03-22T17:42:26.894Z,33.63
2019-03-22T17:49:49.378Z,34.37
2019-03-22T17:52:14.596Z,34.87
2019-03-22T17:54:38.023Z,35.03
2019-03-22T17:57:01.470Z,33.10
2019-03-22T18:01:53.897Z,32.60
2019-03-22T18:04:24.112Z,34.93
2019-03-22T18:06:42.284Z,31.70
2019-03-22T18:09:25.399Z,32.10
2019-03-22T18:11:48.806Z,32.93
2019-03-22T18:14:12.219Z,33.43
2019-03-22T18:16:36.217Z,32.37
2019-03-22T18:21:33.391Z,31.80
2019-03-22T18:23:56.803Z,31.97
2019-03-22T18:26:20.229Z,32.20
2019-03-22T18:31:05.384Z,32.67
2019-03-22T18:33:21.557Z,31.50
2019-03-22T18:35:37.836Z,33.67
2019-03-22T18:37:54.128Z,33.30
2019-03-22T18:40:10.416Z,32.83
2019-03-22T18:42:26.603Z,35.10
2019-03-22T18:44:42.935Z,34.50
2019-03-22T18:46:59.160Z,34.10
2019-03-22T18:49:14.749Z,35.23
2019-03-22T18:51:30.252Z,35.43
2019-03-22T18:53:46.021Z,36.20
2019-03-22T18:56:01.407Z,36.70
2019-03-22T18:58:17.671Z,32.90
2019-03-22T19:00:33.232Z,35.60
2019-03-22T19:02:48.720Z,33.93
2019-03-22T19:05:04.843Z,35.77
2019-03-22T19:07:20.365Z,33.20
2019-03-22T19:09:35.731Z,35.47
2019-03-22T19:11:51.172Z,35.30
2019-03-22T19:14:07.354Z,35.07
2019-03-22T19:16:22.816Z,36.80
2019-03-22T19:18:38.365Z,34.00
2019-03-22T19:20:54.634Z,34.30
2019-03-22T19:23:13.264Z,34.83
2019-03-22T19:25:46.706Z,35.37
2019-03-22T19:27:52.128Z,39.43
2019-03-22T19:30:07.755Z,35.57
2019-03-22T19:32:23.842Z,35.67
2019-03-22T19:34:40.143Z,37.67
2019-03-22T19:36:56.623Z,34.83
2019-03-22T19:39:12.589Z,36.67
2019-03-22T19:41:29.052Z,38.90
2019-03-22T19:43:47.863Z,34.37
2019-03-22T19:46:05.345Z,38.17
2019-03-22T19:48:21.041Z,37.93
2019-03-22T19:50:37.426Z,35.53
2019-03-22T19:52:52.335Z,34.00
2019-03-22T19:55:15.744Z,36.30
2019-03-22T19:57:39.297Z,36.30
2019-03-22T20:00:03.717Z,37.50
2019-03-22T20:02:27.439Z,37.10
2019-03-22T20:05:05.668Z,36.87
2019-03-22T20:07:26.857Z,37.23
2019-03-22T20:09:45.537Z,35.43
2019-03-22T20:12:12.206Z,35.90
2019-03-22T20:14:35.795Z,33.80
2019-03-22T20:16:59.581Z,36.17
2019-03-22T20:19:23.207Z,36.03
2019-03-22T20:21:46.661Z,37.87
2019-03-22T20:26:53.047Z,34.37
2019-03-22T20:29:16.532Z,38.10
2019-03-22T20:31:40.199Z,34.40
2019-03-22T20:33:56.387Z,33.80
2019-03-22T20:36:11.968Z,35.47
2019-03-22T20:38:28.051Z,37.57
2019-03-22T20:40:43.991Z,37.63
2019-03-22T20:43:01.742Z,36.07
2019-03-22T20:45:24.076Z,35.00
2019-03-22T20:47:35.222Z,37.87
2019-03-22T20:49:51.577Z,35.73
2019-03-22T20:52:07.401Z,38.10
2019-03-22T20:54:23.458Z,36.67
2019-03-22T20:56:39.562Z,36.90
2019-03-22T20:58:55.835Z,36.83
2019-03-22T21:01:12.235Z,36.87
2019-03-22T21:03:28.177Z,38.83
2019-03-22T21:05:47.163Z,36.07
2019-03-22T21:08:03.636Z,38.20
2019-03-22T21:10:19.672Z,39.93
2019-03-22T21:12:35.488Z,39.03
2019-03-22T21:14:51.633Z,37.20
2019-03-22T21:17:07.437Z,37.47
2019-03-22T21:19:23.746Z,38.83
2019-03-22T21:21:39.688Z,36.87
2019-03-22T21:23:54.159Z,37.70
2019-03-22T21:26:17.463Z,35.63
2019-03-22T21:28:41.188Z,37.63
2019-03-22T21:31:04.768Z,38.07
2019-03-22T21:33:20.589Z,37.57
2019-03-22T21:35:37.780Z,37.97
2019-03-22T21:37:55.792Z,40.77
2019-03-22T21:40:11.183Z,38.70
2019-03-22T21:42:27.919Z,37.90
2019-03-22T21:44:43.537Z,39.80
2019-03-22T21:46:58.913Z,38.97
2019-03-22T21:49:14.540Z,39.90
2019-03-22T21:51:30.381Z,41.43
2019-03-22T21:53:46.224Z,39.50
2019-03-22T21:56:01.729Z,37.97
2019-03-22T21:58:17.420Z,43.30
2019-03-22T22:00:33.276Z,42.63
2019-03-22T22:02:48.649Z,41.70
2019-03-22T22:05:04.967Z,40.53
2019-03-22T22:07:20.562Z,39.17
2019-03-22T22:09:36.768Z,42.47
2019-03-22T22:11:52.970Z,37.30
2019-03-22T22:14:09.076Z,38.07
2019-03-22T22:16:25.204Z,40.70
2019-03-22T22:18:41.252Z,38.40
2019-03-22T22:20:57.421Z,37.87
2019-03-22T22:23:13.559Z,39.77
2019-03-22T22:25:29.440Z,40.07
2019-03-22T22:27:44.784Z,40.97
2019-03-22T22:30:01.080Z,39.00
2019-03-22T22:32:16.806Z,40.80
2019-03-22T22:34:32.894Z,39.30
2019-03-22T22:36:49.075Z,43.00
2019-03-22T22:39:05.274Z,40.33
2019-03-22T22:41:19.850Z,39.13
2019-03-22T22:43:43.252Z,37.57
2019-03-22T22:46:06.670Z,39.73
2019-03-22T22:48:29.999Z,40.10
2019-03-22T22:53:41.575Z,39.00
2019-03-22T22:56:04.927Z,41.70
2019-03-22T22:58:28.244Z,41.20
2019-03-22T23:06:09.306Z,40.90
2019-03-22T23:08:28.923Z,40.43
2019-03-22T23:10:52.326Z,40.50
2019-03-22T23:13:15.654Z,41.00
2019-03-22T23:15:39.049Z,39.00
2019-03-22T23:20:31.952Z,41.97
2019-03-22T23:22:55.327Z,42.50
2019-03-22T23:25:18.686Z,38.47
2019-03-22T23:30:23.188Z,41.97
2019-03-22T23:32:36.692Z,41.23
2019-03-22T23:34:58.915Z,43.27
2019-03-22T23:37:09.680Z,38.77
2019-03-22T23:39:25.624Z,39.07
2019-03-22T23:41:41.919Z,38.20
2019-03-22T23:43:58.516Z,38.50
2019-03-22T23:46:14.425Z,41.80
2019-03-22T23:48:29.799Z,39.47
2019-03-22T23:50:45.575Z,39.50
2019-03-22T23:53:01.639Z,40.87
2019-03-22T23:55:17.083Z,39.17
2019-03-22T23:57:32.623Z,42.50
2019-03-22T23:59:48.657Z,40.47
